Emma Bardán — ECJU — position and weather

sailwx.info

Track history (hours):
 
Tides and Currents Weather Stations Pressure Air Temp Water Temp Dewpoint Dewpoint Depression Visibility Wind Speed Wind Dir Waves Ship Positions

Oceanographic research ship Emma Bardán (Spain)

Ship's website: http://www.mapa.es/es/pesca/pags/emma_web/index.htm

Last reported at 2020-Mar-18 11:34 UTC. Time now 2020-Apr-06 19:08 UTC.
Position N 39°16' W 009°38'.
Warning: this ship's position is 19 days out of date.

Length 29 m; draft 3.6 m.

Type: . MMSI: 224756000.

Date/timePositionNaut miles runAvg speedWind from/ knotsBaromVisibWave heightAir tempDewpointWater temp
2020-Mar-18 11:34N 39°16' W 009°38'1610.5
2020-Mar-18 10:00N 39°00' W 009°41'510.4
2020-Mar-18 09:30N 38°55' W 009°42'510.4
2020-Mar-18 09:01N 38°50' W 009°42'510.4
2020-Mar-18 08:30N 38°45' W 009°42'5010.1
2020-Mar-18 03:30N 37°55' W 009°31'1010.0
2020-Mar-18 02:30N 37°45' W 009°29'510.0
2020-Mar-18 02:00N 37°40' W 009°28'67 8.4
2020-Mar-17 18:01N 36°46' W 008°38'1610.8
2020-Mar-17 16:30N 36°47' W 008°18'  
2020-Mar-12 09:03N 36°43' W 002°34'111.2
2020-Mar-12 08:57N 36°44' W 002°34'7 5.2
2020-Mar-12 07:31N 36°50' W 002°28'0 0.0
2020-Mar-12 06:30N 36°50' W 002°28'0 0.0
2020-Mar-12 06:00N 36°50' W 002°28'0 0.0
2020-Mar-12 05:31N 36°50' W 002°28'0 0.0
2020-Mar-12 04:01N 36°50' W 002°28'0 0.0
2020-Mar-12 02:31N 36°50' W 002°28'0 0.0
2020-Mar-12 01:01N 36°50' W 002°28'0 0.0
2020-Mar-11 23:31N 36°50' W 002°28'0 0.0
2020-Mar-11 23:01N 36°50' W 002°28'0 0.0
2020-Mar-11 22:00N 36°50' W 002°28'0 0.0
2020-Mar-11 20:01N 36°50' W 002°28'0 0.0
2020-Mar-11 19:01N 36°50' W 002°28'0 0.0
2020-Mar-11 18:31N 36°50' W 002°28'0 0.0
2020-Mar-11 17:01N 36°50' W 002°28'0 0.0
2020-Mar-11 06:01N 36°50' W 002°28'0 0.0
2020-Mar-11 03:01N 36°50' W 002°28'0 0.0
2020-Mar-10 23:01N 36°50' W 002°28'0 0.0
2020-Mar-10 21:01N 36°50' W 002°28'0 0.0
2020-Mar-10 20:01N 36°50' W 002°28'0 0.0
2020-Mar-10 18:31N 36°50' W 002°28'0 0.0
2020-Mar-10 18:01N 36°50' W 002°28'0 0.0
2020-Mar-10 14:31N 36°50' W 002°28'2 1.9
2020-Mar-10 13:31N 36°48' W 002°29'1 1.5
2020-Mar-10 13:01N 36°47' W 002°29'8 3.4
2020-Mar-10 10:35N 36°39' W 002°29'6 3.8
2020-Mar-10 09:01N 36°45' W 002°29'4 2.7
2020-Mar-10 07:31N 36°49' W 002°29'1 1.1
2020-Mar-10 06:31N 36°50' W 002°28'0 0.0
2020-Mar-10 05:00N 36°50' W 002°28'0 0.0
2020-Mar-10 04:30N 36°50' W 002°28'0 0.0
2020-Mar-10 04:01N 36°50' W 002°28'0 0.0
2020-Mar-10 02:31N 36°50' W 002°28'0 0.0
2020-Mar-10 01:01N 36°50' W 002°28'0 0.0
2020-Mar-10 00:00N 36°50' W 002°28'0 0.0
2020-Mar-09 23:31N 36°50' W 002°28'0 0.0
2020-Mar-09 20:31N 36°50' W 002°28'0 0.0
2020-Mar-09 18:31N 36°50' W 002°28'3 6.4
2020-Mar-09 18:01N 36°47' W 002°28'510.8
2020-Mar-09 17:30N 36°41' W 002°28'510.6
2020-Mar-09 17:01N 36°36' W 002°28'82 2.9
2020-Mar-08 12:14N 35°22' W 003°13'  
Track history (hours):
 
Tides and Currents Weather Stations Pressure Air Temp Water Temp Dewpoint Dewpoint Depression Visibility Wind Speed Wind Dir Waves Ship Positions

Oceanographic research ship Emma Bardán (Spain)

Ship's website: http://www.mapa.es/es/pesca/pags/emma_web/index.htm

Last reported at 2020-Mar-18 11:34 UTC. Time now 2020-Apr-06 19:08 UTC.
Position N 39°16' W 009°38'.
Warning: this ship's position is 19 days out of date.

Length 29 m; draft 3.6 m.

Type: . MMSI: 224756000.

Date/timePositionNaut miles runAvg speedWind from/ knotsBaromVisibWave heightAir tempDewpointWater temp
2020-Mar-18 11:34N 39°16' W 009°38'1610.5
2020-Mar-18 10:00N 39°00' W 009°41'510.4
2020-Mar-18 09:30N 38°55' W 009°42'510.4
2020-Mar-18 09:01N 38°50' W 009°42'510.4
2020-Mar-18 08:30N 38°45' W 009°42'5010.1
2020-Mar-18 03:30N 37°55' W 009°31'1010.0
2020-Mar-18 02:30N 37°45' W 009°29'510.0
2020-Mar-18 02:00N 37°40' W 009°28'67 8.4
2020-Mar-17 18:01N 36°46' W 008°38'1610.8
2020-Mar-17 16:30N 36°47' W 008°18'  
2020-Mar-12 09:03N 36°43' W 002°34'111.2
2020-Mar-12 08:57N 36°44' W 002°34'7 5.2
2020-Mar-12 07:31N 36°50' W 002°28'0 0.0
2020-Mar-12 06:30N 36°50' W 002°28'0 0.0
2020-Mar-12 06:00N 36°50' W 002°28'0 0.0
2020-Mar-12 05:31N 36°50' W 002°28'0 0.0
2020-Mar-12 04:01N 36°50' W 002°28'0 0.0
2020-Mar-12 02:31N 36°50' W 002°28'0 0.0
2020-Mar-12 01:01N 36°50' W 002°28'0 0.0
2020-Mar-11 23:31N 36°50' W 002°28'0 0.0
2020-Mar-11 23:01N 36°50' W 002°28'0 0.0
2020-Mar-11 22:00N 36°50' W 002°28'0 0.0
2020-Mar-11 20:01N 36°50' W 002°28'0 0.0
2020-Mar-11 19:01N 36°50' W 002°28'0 0.0
2020-Mar-11 18:31N 36°50' W 002°28'0 0.0
2020-Mar-11 17:01N 36°50' W 002°28'0 0.0
2020-Mar-11 06:01N 36°50' W 002°28'0 0.0
2020-Mar-11 03:01N 36°50' W 002°28'0 0.0
2020-Mar-10 23:01N 36°50' W 002°28'0 0.0
2020-Mar-10 21:01N 36°50' W 002°28'0 0.0
2020-Mar-10 20:01N 36°50' W 002°28'0 0.0
2020-Mar-10 18:31N 36°50' W 002°28'0 0.0
2020-Mar-10 18:01N 36°50' W 002°28'0 0.0
2020-Mar-10 14:31N 36°50' W 002°28'2 1.9
2020-Mar-10 13:31N 36°48' W 002°29'1 1.5
2020-Mar-10 13:01N 36°47' W 002°29'8 3.4
2020-Mar-10 10:35N 36°39' W 002°29'6 3.8
2020-Mar-10 09:01N 36°45' W 002°29'4 2.7
2020-Mar-10 07:31N 36°49' W 002°29'1 1.1
2020-Mar-10 06:31N 36°50' W 002°28'0 0.0
2020-Mar-10 05:00N 36°50' W 002°28'0 0.0
2020-Mar-10 04:30N 36°50' W 002°28'0 0.0
2020-Mar-10 04:01N 36°50' W 002°28'0 0.0
2020-Mar-10 02:31N 36°50' W 002°28'0 0.0
2020-Mar-10 01:01N 36°50' W 002°28'0 0.0
2020-Mar-10 00:00N 36°50' W 002°28'0 0.0
2020-Mar-09 23:31N 36°50' W 002°28'0 0.0
2020-Mar-09 20:31N 36°50' W 002°28'0 0.0
2020-Mar-09 18:31N 36°50' W 002°28'3 6.4
2020-Mar-09 18:01N 36°47' W 002°28'510.8
2020-Mar-09 17:30N 36°41' W 002°28'510.6
2020-Mar-09 17:01N 36°36' W 002°28'82 2.9
2020-Mar-08 12:14N 35°22' W 003°13'  

Dump ship's entire track history